Date,TemperatureHighF,TemperatureAvgF,TemperatureLowF,DewpointHighF,DewpointAvgF,DewpointLowF,HumidityHigh,HumidityAvg,HumidityLow,PressureMaxIn,PressureMinIn,WindSpeedMaxMPH,WindSpeedAvgMPH,GustSpeedMaxMPH,PrecipitationSumIn
2012-1-1,52,37,21,20,12,8,66,39,19,30.66,30.16,7,2,16,0.00
2012-1-2,53,34,17,23,13,9,72,46,22,30.84,30.51,8,2,14,0.00
2012-1-3,66,42,18,29,20,14,87,50,17,30.63,30.05,8,2,17,0.00
2012-1-4,52,41,24,23,18,15,69,41,25,30.50,30.03,12,3,20,0.00
2012-1-5,59,37,17,17,12,4,81,45,11,30.57,29.99,8,1,13,0.00
2012-1-6,60,49,29,12,7,3,44,19,10,30.14,29.83,10,5,27,0.00
2012-1-7,59,38,18,22,13,9,80,41,15,30.19,29.98,7,1,14,0.00
2012-1-8,60,42,31,33,19,12,90,43,17,30.08,29.82,7,1,16,0.00
2012-1-9,34,30,27,32,26,24,92,88,83,30.30,29.97,5,1,17,0.07
2012-1-10,45,37,26,30,24,17,90,62,35,30.30,29.98,12,5,20,0.02
2012-1-11,57,47,29,27,19,15,81,35,21,30.02,29.78,12,5,33,0.00
2012-1-12,39,29,22,28,18,7,91,67,35,30.38,30.01,7,3,16,0.00
2012-1-13,49,34,16,22,15,8,71,48,20,30.44,30.11,7,1,12,0.00
2012-1-14,60,32,12,12,3,-5,71,40,8,30.65,30.25,6,1,12,0.00
2012-1-15,61,46,27,30,23,11,71,42,25,30.37,29.96,10,3,25,0.00
2012-1-16,62,54,35,28,26,23,69,35,25,30.03,29.80,18,7,30,0.00
2012-1-17,59,47,26,33,24,19,75,45,21,30.33,29.87,13,4,25,0.00
2012-1-18,61,43,22,27,16,6,86,44,14,30.44,29.94,12,4,21,0.00
2012-1-19,68,55,36,17,13,7,36,19,13,30.03,29.81,10,4,25,0.00
2012-1-20,66,57,34,12,9,1,37,15,11,29.94,29.71,12,5,30,0.00
2012-1-21,66,52,29,11,6,1,37,17,10,30.09,29.63,8,3,22,0.00
2012-1-22,58,53,45,12,7,3,22,16,11,29.96,29.54,21,9,37,0.00
2012-1-23,62,44,26,8,5,2,41,22,9,30.17,29.83,8,2,18,0.00
2012-1-24,59,48,25,27,13,3,56,28,12,29.92,29.58,9,4,21,0.00
2012-1-25,37,30,22,30,26,19,93,85,60,30.26,29.88,6,1,18,0.09
2012-1-26,53,39,23,31,24,18,87,59,27,30.35,30.07,7,2,20,0.33
2012-1-27,62,47,28,26,19,14,76,38,18,30.16,29.83,10,4,20,0.00
2012-1-28,46,35,25,26,21,16,81,58,37,30.50,30.06,8,3,18,0.00
2012-1-29,60,37,20,32,23,17,90,62,23,30.56,30.22,5,1,12,0.00
2012-1-30,62,40,23,32,24,19,90,60,22,30.33,30.02,7,2,15,0.00
2012-1-31,63,42,28,32,24,18,91,56,20,30.26,30.00,8,2,17,0.00
2012-2-1,64,43,28,27,19,14,77,46,15,30.36,30.01,3,1,13,0.00
2012-2-2,66,53,32,32,18,8,58,28,10,30.02,29.64,12,5,27,0.00
2012-2-3,61,43,24,18,11,8,55,31,13,30.13,29.78,7,2,16,0.00
2012-2-4,41,34,28,28,22,18,88,61,42,30.37,30.01,6,2,14,0.00
2012-2-5,40,32,25,24,20,16,86,64,42,30.42,30.28,8,2,13,0.00
2012-2-6,56,39,24,28,22,16,79,52,28,30.36,29.98,7,2,16,0.00
2012-2-7,55,35,24,32,24,19,87,66,31,30.40,30.06,6,1,14,0.00
2012-2-8,52,37,26,32,28,22,86,71,43,30.45,30.15,10,3,20,0.00
2012-2-9,60,42,24,37,29,21,94,65,37,30.26,29.97,10,2,20,0.00
2012-2-10,55,41,28,31,24,15,93,56,21,30.29,29.97,7,2,20,0.00
2012-2-11,55,35,21,26,22,16,85,62,27,30.41,30.16,9,3,21,0.00
2012-2-12,42,33,26,38,29,19,93,82,71,30.27,29.95,10,3,20,0.14
2012-2-13,54,43,28,39,26,21,96,55,28,29.97,29.74,15,6,35,0.00
2012-2-14,60,44,24,33,25,20,86,52,22,30.07,29.76,13,3,24,0.00
2012-2-15,53,42,25,25,19,11,63,43,18,30.17,29.76,14,5,28,0.00
2012-2-16,56,44,31,37,24,11,91,50,27,30.18,29.88,8,2,26,0.06
2012-2-17,53,42,35,42,35,29,96,80,39,30.04,29.87,6,2,20,0.00
2012-2-18,49,38,23,32,28,19,85,68,38,30.18,29.89,7,2,20,0.01
2012-2-19,59,40,16,25,17,8,87,48,13,30.26,29.73,13,3,24,0.00
2012-2-20,56,46,24,16,12,5,54,27,14,30.19,29.75,15,6,31,0.00
2012-2-21,64,43,20,14,6,0,61,30,8,30.32,29.90,9,2,20,0.00
2012-2-22,64,57,51,9,5,-2,17,12,9,30.02,29.65,13,9,32,0.00
2012-2-23,68,60,51,25,16,2,27,19,11,29.77,29.47,18,11,43,0.00
2012-2-24,50,37,24,26,12,7,57,37,23,30.38,29.83,7,3,25,0.00
2012-2-25,59,40,18,24,15,9,70,41,19,30.40,29.97,9,2,18,0.00
2012-2-26,69,55,36,26,22,15,58,30,13,30.00,29.70,7,3,20,0.00
2012-2-27,64,49,30,42,26,20,69,44,21,30.16,29.78,9,3,22,0.00
2012-2-28,72,61,46,43,22,-5,67,27,6,29.91,29.67,14,7,30,0.00
2012-2-29,64,47,28,19,8,1,53,25,8,30.19,29.85,10,3,22,0.00
2012-3-1,67,56,37,10,2,-6,18,12,6,29.96,29.64,16,7,35,0.00
2012-3-2,65,56,38,10,3,0,20,12,9,29.93,29.58,14,6,34,0.00
2012-3-3,51,37,21,11,0,-9,60,25,8,30.37,29.94,8,3,20,0.00
2012-3-4,66,48,24,3,-1,-5,27,14,7,30.34,29.99,10,3,21,0.00
2012-3-5,72,49,21,5,-2,-8,37,16,5,30.37,29.89,8,2,20,0.00
2012-3-6,71,62,50,20,14,5,25,16,9,29.95,29.59,9,5,20,0.00
2012-3-7,74,65,55,17,7,-2,19,11,6,29.65,29.50,15,6,30,0.00
2012-3-8,56,35,27,29,16,2,89,53,12,30.41,29.62,7,2,20,0.00
2012-3-9,27,26,24,24,22,20,92,87,83,30.56,30.39,6,2,17,0.00
2012-3-10,55,35,26,36,28,20,96,80,41,30.39,29.88,7,2,18,0.00
2012-3-11,62,49,38,20,14,8,47,27,14,30.09,29.88,14,6,31,0.00
2012-3-12,72,48,25,12,7,0,47,24,6,30.14,29.98,6,1,13,0.00
2012-3-13,75,54,31,31,16,8,57,26,9,30.14,29.87,8,2,17,0.00
2012-3-14,74,53,30,27,17,9,66,32,9,30.12,29.87,5,1,13,0.00
2012-3-15,74,54,35,27,12,2,59,24,7,30.10,29.94,7,1,13,0.00
2012-3-16,76,58,37,50,32,11,77,43,17,30.04,29.67,12,3,21,0.00
2012-3-17,75,60,35,50,27,17,87,38,12,30.00,29.62,10,4,21,0.00
2012-3-18,70,65,59,32,21,13,31,19,13,29.64,29.47,17,9,31,0.00
2012-3-19,59,48,35,37,27,18,84,48,20,29.77,29.45,15,5,28,0.02
2012-3-20,40,33,26,27,18,10,86,56,31,29.89,29.68,12,6,29,0.00
2012-4-9,76,62,45,51,46,41,95,61,29,29.98,29.77,10,4,24,0.21
2012-4-10,74,63,52,53,48,42,94,61,33,29.90,29.76,5,2,18,0.02
2012-4-11,76,63,40,52,43,30,81,51,21,29.85,29.65,12,4,30,0.02
2012-4-12,77,61,40,32,23,18,53,26,12,29.90,29.67,8,2,20,0.00
2012-4-13,77,68,57,52,19,5,67,19,8,29.81,29.44,14,6,27,0.00
2012-4-14,78,59,39,24,13,1,49,22,5,29.83,29.32,14,8,31,0.00
2012-4-15,60,55,49,17,10,7,27,17,12,29.87,29.81,12,9,31,0.00
2012-4-18,71,67,61,22,20,18,19,17,16,29.77,29.68,13,7,20,0.00
2012-4-19,79,70,51,29,20,12,27,16,9,29.80,29.56,13,4,22,0.00
2012-4-20,67,58,43,42,30,10,64,37,13,30.06,29.60,7,2,17,0.00
2012-4-21,80,60,35,31,26,21,64,32,12,30.07,29.79,8,2,22,0.00
2012-4-22,80,64,42,33,27,24,50,27,14,29.99,29.79,7,2,25,0.00
2012-4-23,80,66,48,34,29,26,48,26,14,29.98,29.75,9,2,20,0.00
2012-4-24,85,69,45,33,29,26,54,26,12,29.89,29.61,6,2,18,0.00
2012-4-25,88,73,48,30,24,19,45,19,9,29.82,29.59,9,3,20,0.00
2012-4-26,85,68,50,24,19,16,27,17,9,29.84,29.63,6,0,16,0.00
2012-4-27,81,70,54,26,20,14,28,16,8,29.78,29.51,10,4,27,0.00
2012-4-28,85,65,44,36,17,12,50,18,7,29.72,29.45,7,2,21,0.00
2012-4-29,80,64,42,50,28,21,61,32,12,29.74,29.56,7,2,20,0.00
2012-4-30,85,68,44,52,38,18,82,42,9,29.81,29.60,13,3,24,0.00
2012-5-1,83,70,45,50,32,20,67,30,11,29.79,29.51,10,3,24,0.00
2012-5-2,84,67,46,44,22,9,78,29,7,29.76,29.57,10,2,20,0.00
2012-5-3,82,70,50,49,15,9,54,13,8,29.85,29.65,8,3,18,0.00
2012-5-4,84,66,42,48,22,9,70,28,7,29.90,29.67,13,3,24,0.00
2012-5-5,80,65,43,18,14,9,27,15,9,29.84,29.62,8,3,20,0.00
2012-5-6,82,64,41,18,14,9,28,16,8,29.87,29.65,12,3,21,0.00
2012-5-7,76,63,49,54,26,10,89,30,13,29.83,29.62,6,2,14,0.09
2012-5-8,58,53,49,53,49,46,93,88,79,29.98,29.69,7,2,17,0.12
2012-5-9,55,52,48,50,47,45,90,85,76,30.01,29.84,7,3,20,0.13
2012-5-10,61,52,45,49,42,35,92,73,42,29.89,29.71,8,3,26,0.49
2012-5-11,67,56,47,47,44,42,89,66,42,29.98,29.72,6,2,19,0.07
2012-5-12,70,57,42,46,42,36,93,61,34,30.12,29.96,6,2,18,0.00
2012-5-13,71,60,49,48,46,42,86,61,38,30.10,29.87,10,4,16,0.00
2012-5-14,64,53,45,48,44,40,89,75,46,30.12,29.92,9,3,21,0.20
2012-5-15,66,53,40,45,42,37,94,70,44,30.16,30.01,6,1,12,0.01
2012-5-16,73,56,37,49,34,27,96,52,18,30.14,29.86,7,1,16,0.00
2012-5-17,82,63,39,43,34,27,83,41,14,29.98,29.64,13,2,22,0.00
2012-5-18,85,76,63,39,30,24,31,19,12,29.68,29.45,13,5,26,0.00
2012-5-19,86,74,51,49,29,13,62,24,7,29.74,29.48,14,3,28,0.00
2012-5-20,77,66,49,52,45,37,77,50,28,29.90,29.68,9,3,17,0.00
2012-5-21,79,62,45,60,46,38,94,59,29,30.15,29.82,5,1,17,0.32
2012-5-22,86,67,48,53,43,28,93,51,12,30.05,29.58,10,2,20,0.19
2012-5-23,88,76,53,42,28,20,60,20,9,29.60,29.35,16,5,37,0.01
2012-5-24,87,77,61,34,26,21,35,16,9,29.55,29.36,12,5,28,0.00
2012-5-25,86,75,56,44,30,23,43,22,11,29.65,29.40,16,6,36,0.00
2012-5-26,86,71,61,60,48,43,82,47,23,29.67,29.52,16,5,35,0.06
2012-5-27,84,71,54,54,44,24,89,45,12,29.73,29.57,9,2,26,0.05
2012-5-28,88,69,47,54,33,21,76,34,10,29.80,29.60,7,2,18,0.00
2012-5-29,89,68,42,38,24,12,61,25,6,29.83,29.64,9,2,18,0.00
2012-5-30,88,71,44,22,13,6,40,14,5,29.77,29.50,14,3,27,0.00
2012-5-31,81,71,46,54,29,0,56,25,6,29.72,29.49,10,3,22,0.00
2012-6-1,82,69,58,57,50,40,87,57,23,29.81,29.64,8,2,18,0.00
2012-6-2,85,73,52,54,43,34,79,39,17,29.77,29.56,10,3,21,0.00
2012-6-3,89,75,52,52,37,18,70,31,9,29.72,29.52,12,2,28,0.00
2012-6-4,90,73,48,37,25,20,50,21,8,29.75,29.48,7,2,19,0.00
2012-6-5,84,67,50,56,45,36,81,48,22,29.75,29.58,6,1,12,0.07
2012-6-6,90,74,52,48,32,16,74,30,8,29.75,29.49,6,2,17,0.00
2012-6-7,89,77,55,41,34,22,54,24,9,29.70,29.48,10,3,18,0.00
2012-6-8,83,66,52,61,45,31,86,50,27,29.92,29.58,8,1,14,0.37
2012-6-9,90,77,57,48,32,20,60,24,8,29.75,29.43,8,3,22,0.00
2012-6-10,89,75,53,40,26,17,58,21,9,29.72,29.50,9,3,24,0.00
2012-6-11,90,74,49,43,28,19,50,23,8,29.83,29.64,7,1,20,0.01
2012-6-12,89,78,62,59,40,31,64,27,15,29.78,29.59,8,3,20,0.03
2012-6-13,87,76,67,54,48,41,55,38,21,29.68,29.54,15,5,32,0.00
2012-6-14,90,79,68,51,43,31,52,31,13,29.69,29.47,20,6,31,0.00
2012-6-15,85,71,57,61,44,35,91,41,20,29.78,29.54,15,5,35,1.49
2012-6-16,82,68,54,56,49,39,86,55,24,29.93,29.70,7,1,14,0.00
2012-6-17,83,71,54,56,50,42,92,53,24,29.91,29.62,5,1,14,0.00
2012-6-18,92,76,54,53,42,30,85,38,11,29.66,29.39,10,3,26,0.00
2012-6-19,92,80,60,45,33,21,57,21,8,29.52,29.37,12,4,26,0.00
2012-6-20,92,78,56,54,38,23,73,31,9,29.61,29.41,10,4,22,0.00
2012-6-21,83,73,54,54,48,43,80,44,26,29.80,29.57,8,3,18,0.00
2012-6-22,82,71,52,52,48,41,86,47,27,29.86,29.68,9,3,21,0.00
2012-6-23,84,74,62,50,44,33,61,37,16,29.74,29.63,8,3,26,0.00
2012-6-24,86,74,57,49,44,36,68,37,21,29.81,29.67,8,3,18,0.00
2012-6-25,89,75,52,51,42,29,80,36,12,29.86,29.65,6,2,21,0.00
2012-6-26,90,77,55,49,38,25,70,30,10,29.77,29.59,8,2,20,0.00
2012-6-27,90,77,58,47,39,32,54,29,13,29.78,29.61,8,3,22,0.00
2012-6-28,89,79,61,52,43,38,62,30,18,29.79,29.67,7,2,20,0.00
2012-6-29,90,75,54,46,41,35,67,33,15,29.81,29.59,8,2,25,0.00
2012-6-30,88,76,58,47,41,33,57,31,16,29.72,29.56,7,2,16,0.00
2012-7-1,82,72,52,55,48,40,87,48,22,29.73,29.57,8,3,18,0.00
2012-7-2,77,69,62,63,54,51,84,62,41,29.75,29.67,8,2,21,0.03
2012-7-3,82,68,62,61,56,51,89,68,34,29.80,29.65,12,4,29,0.60
2012-7-4,76,67,61,59,56,52,85,68,52,29.81,29.66,9,3,27,0.20
2012-7-5,72,65,60,60,56,52,89,71,52,29.87,29.73,8,2,16,0.05
2012-7-6,76,69,64,58,54,50,74,60,42,29.90,29.78,10,2,20,0.00
2012-7-7,81,71,55,54,47,39,85,48,24,29.92,29.76,7,2,21,0.00
2012-7-8,81,70,56,60,51,45,84,55,30,29.91,29.76,6,2,21,0.04
2012-7-9,81,71,58,58,54,49,89,57,33,29.92,29.75,7,2,17,0.00
2012-7-10,76,66,61,60,58,54,91,74,50,29.90,29.76,8,2,16,0.49
2012-7-11,71,65,61,61,59,54,95,81,57,29.94,29.82,6,2,16,0.51
2012-7-12,78,69,60,59,54,46,93,63,35,29.89,29.78,7,2,14,0.00
2012-7-13,78,67,53,60,51,46,95,60,32,29.93,29.78,8,1,14,0.00
2012-7-14,82,69,52,57,49,41,95,56,26,29.93,29.76,7,2,14,0.00
2012-7-15,82,72,54,54,47,38,88,45,22,29.89,29.69,6,2,13,0.00
2012-7-16,84,72,55,56,49,40,86,48,22,29.80,29.61,6,2,14,0.01
2012-7-17,81,66,54,57,52,49,88,61,33,29.81,29.70,5,1,18,0.00
2012-7-18,82,68,52,56,52,50,93,61,33,29.88,29.72,8,2,18,0.01
2012-7-19,76,68,55,58,53,48,89,62,37,29.92,29.80,6,2,24,0.06
2012-7-20,77,69,61,58,56,53,83,66,46,29.98,29.86,8,2,21,0.01
2012-7-21,85,71,52,58,46,37,94,47,20,30.00,29.77,10,2,16,0.00
2012-7-22,84,70,49,52,43,35,86,44,18,29.92,29.75,7,1,14,0.00
2012-7-23,84,73,59,58,48,41,70,43,24,29.91,29.76,7,1,21,0.00
2012-7-24,80,73,66,55,51,47,67,47,33,29.86,29.70,7,1,20,0.00
2012-7-25,79,68,58,52,50,48,75,55,34,29.80,29.72,6,2,20,0.00
2012-7-26,80,69,63,60,57,54,90,67,41,29.85,29.67,5,1,19,0.11
2012-7-27,73,67,61,62,59,56,93,76,63,29.95,29.82,7,3,17,0.23
2012-7-28,80,70,62,61,56,50,89,63,35,29.96,29.84,8,3,22,0.00
2012-7-29,83,73,59,58,52,46,86,53,28,29.94,29.77,7,2,20,0.00
2012-7-30,85,74,55,54,47,43,79,42,25,29.92,29.72,7,2,17,0.00
2012-7-31,88,74,56,53,48,44,78,44,24,29.88,29.72,6,1,10,0.00
2012-8-1,90,75,57,52,46,42,73,40,20,29.86,29.66,7,1,20,0.00
2012-8-2,92,77,56,49,46,40,75,38,17,29.76,29.56,9,2,18,0.00
2012-8-3,92,79,60,49,44,37,64,32,15,29.70,29.51,7,2,20,0.00
2012-8-4,91,78,58,52,48,43,72,37,20,29.71,29.54,8,3,17,0.00
2012-8-5,82,72,56,56,53,49,86,53,32,29.94,29.72,10,3,20,0.00
2012-8-6,84,73,54,54,49,46,81,47,26,30.02,29.80,8,3,18,0.00
2012-8-7,89,75,54,54,47,43,84,42,21,29.92,29.72,7,2,18,0.00
2012-8-8,86,77,70,52,48,44,49,37,26,29.84,29.69,8,3,21,0.00
2012-8-9,85,72,57,56,50,45,74,50,28,29.89,29.74,9,2,20,0.00
2012-8-10,86,72,52,54,46,38,88,46,20,29.93,29.72,12,3,22,0.00
2012-8-11,89,74,54,49,43,38,72,38,17,29.87,29.70,12,2,20,0.00
2012-8-12,90,76,54,49,43,38,71,35,16,29.85,29.66,10,2,20,0.00
2012-8-13,83,72,58,58,50,43,75,48,28,29.92,29.70,9,3,20,0.01
2012-8-14,87,76,59,55,48,42,75,40,22,29.91,29.61,13,3,27,0.00
2012-8-15,89,74,55,53,46,43,68,40,22,29.74,29.59,6,1,20,0.00
2012-8-16,85,74,62,61,52,46,84,49,28,29.81,29.58,7,2,21,0.22
2012-8-17,82,71,60,61,55,52,91,61,38,29.90,29.71,7,1,16,0.05
2012-8-18,79,67,60,63,59,55,93,78,44,29.81,29.66,7,1,17,0.22
2012-8-19,77,67,55,63,57,54,97,73,48,29.86,29.73,7,3,20,0.01
2012-8-20,82,69,53,58,49,41,96,55,24,29.92,29.73,8,2,16,0.00
2012-8-21,84,70,52,53,49,45,87,50,27,29.86,29.72,7,1,14,0.00
2012-8-22,82,72,62,55,49,45,72,45,30,29.87,29.72,9,2,17,0.00
2012-8-23,86,75,65,58,49,46,74,42,27,29.78,29.63,10,5,26,0.00
2012-8-24,86,70,55,63,54,48,87,60,27,29.78,29.62,12,3,20,0.05
2012-8-25,85,71,54,60,50,43,88,53,24,29.75,29.58,10,3,21,0.02
2012-8-26,82,67,58,62,56,47,95,70,37,29.90,29.66,8,1,16,0.16
2012-8-27,76,65,55,61,57,53,96,78,47,29.97,29.89,8,1,16,0.09
2012-8-28,77,64,51,59,50,40,97,67,28,30.04,29.85,8,2,16,0.01
2012-8-29,76,64,51,60,52,46,96,68,42,29.94,29.74,7,2,16,0.00
2012-8-30,81,64,44,52,40,34,91,51,19,29.91,29.76,6,1,12,0.00
2012-8-31,82,64,45,44,40,38,76,46,21,29.98,29.80,7,2,16,0.00
2012-9-1,85,70,51,52,44,38,73,43,20,29.94,29.77,7,2,16,0.00
2012-9-2,85,73,53,53,48,40,83,44,22,29.91,29.71,8,2,17,0.00
2012-9-3,84,73,58,57,52,48,82,51,29,29.83,29.67,8,2,21,0.00
2012-9-4,87,73,60,59,51,47,77,49,25,29.86,29.64,9,1,17,0.02
2012-9-5,89,71,55,58,51,47,90,54,24,29.84,29.66,7,2,17,0.00
2012-9-6,86,68,54,62,54,46,94,65,27,29.89,29.67,8,2,17,0.94
2012-9-7,85,69,55,66,54,45,94,64,28,29.91,29.70,6,1,14,0.13
2012-9-8,70,60,52,55,45,38,78,61,41,30.17,29.74,9,4,21,0.00
2012-9-9,76,59,42,44,39,27,90,54,23,30.18,29.97,6,2,14,0.00
2012-9-10,79,65,46,45,41,38,82,45,26,30.07,29.79,5,1,18,0.00
2012-9-11,81,68,51,48,43,39,77,45,23,29.94,29.74,8,2,13,0.00
2012-9-12,81,66,56,54,49,45,88,58,28,29.92,29.74,6,1,22,0.10
2012-9-13,65,55,50,55,52,49,95,88,64,30.23,29.76,6,1,14,0.11
2012-9-14,54,51,49,48,47,46,94,88,75,30.29,30.18,5,1,13,0.02
2012-9-15,58,51,44,50,47,41,95,86,68,30.23,30.08,5,1,8,0.86
2012-9-16,74,56,39,49,42,32,97,65,22,30.17,29.86,6,1,17,0.01
2012-9-17,82,68,45,42,33,24,86,33,12,29.93,29.64,7,3,18,0.00
2012-9-18,72,60,48,52,46,29,86,60,32,30.01,29.78,6,2,16,0.00
2012-9-19,78,62,43,52,44,37,96,61,24,30.10,29.88,5,1,17,0.01
2012-9-20,80,63,44,48,37,27,92,48,15,30.06,29.87,6,1,16,0.00
2012-9-21,82,66,46,45,36,30,73,38,17,30.03,29.75,8,1,22,0.00
2012-9-22,81,62,42,40,32,25,74,40,14,30.12,29.85,6,2,17,0.00
2012-9-23,76,65,45,39,31,27,64,31,19,30.08,29.91,7,2,18,0.00
2012-9-24,79,66,48,48,42,34,75,45,23,30.00,29.76,9,3,20,0.00
2012-9-25,82,70,51,48,41,34,73,38,18,29.92,29.64,9,2,20,0.00
2012-9-26,81,70,56,55,46,41,68,45,27,29.86,29.62,9,2,22,0.02
2012-9-27,69,64,58,57,52,48,89,68,47,29.91,29.73,9,1,21,0.15
2012-9-28,60,59,57,58,56,53,95,91,83,29.92,29.79,5,0,12,1.36
2012-9-29,58,55,51,56,52,49,95,90,78,30.03,29.83,8,2,14,0.15
2012-9-30,72,58,44,54,48,43,97,73,40,30.03,29.83,9,2,26,0.07
2012-10-1,69,57,44,48,43,40,92,64,36,30.03,29.84,8,2,27,0.00
2012-10-2,73,56,40,49,42,38,96,66,28,30.11,29.86,8,2,21,0.00
2012-10-3,81,67,44,42,34,25,89,36,14,29.89,29.69,9,4,25,0.00
2012-10-4,79,69,49,44,34,27,76,30,19,29.99,29.78,7,2,14,0.00
2012-10-5,81,63,44,45,38,33,84,47,20,30.10,29.85,7,1,25,0.00
2012-10-6,77,58,43,51,44,38,94,66,26,30.01,29.78,7,2,18,0.00
2012-10-7,71,50,38,48,41,37,96,77,29,30.11,29.89,9,3,17,0.00
2012-10-8,76,55,36,46,39,34,94,63,27,30.15,29.86,8,2,14,0.00
2012-10-9,78,60,45,44,38,33,87,52,20,30.02,29.80,7,1,16,0.00
2012-10-10,72,57,42,52,42,36,87,60,34,30.11,29.86,10,2,20,0.00
2012-10-11,78,68,58,57,52,43,87,58,38,29.93,29.74,10,5,30,0.01
2012-10-12,78,70,62,56,52,43,65,55,41,29.89,29.72,13,7,27,0.00
2012-10-13,73,66,54,54,41,17,86,47,14,29.90,29.75,14,6,39,0.00
2012-10-14,68,53,38,35,30,24,66,44,27,30.16,29.93,6,2,13,0.00
2012-10-15,71,58,43,48,41,33,72,54,38,30.12,29.83,6,1,14,0.00
2012-10-16,71,63,55,50,46,41,80,57,37,29.83,29.64,10,3,20,0.00
2012-10-17,77,67,61,47,31,23,57,28,14,29.73,29.58,12,5,32,0.00
2012-10-18,76,65,41,38,28,21,49,27,13,29.91,29.65,13,3,22,0.00
2012-10-19,79,56,35,34,28,24,68,40,15,30.08,29.80,6,1,18,0.00
2012-10-20,80,59,40,42,37,32,75,50,24,29.93,29.70,9,1,17,0.00
2012-10-21,80,62,45,42,39,34,81,48,19,29.87,29.70,8,2,20,0.00
2012-10-22,76,59,43,44,39,33,85,52,22,29.94,29.71,10,2,20,0.00
2012-10-23,81,59,37,38,34,29,80,47,15,30.01,29.76,7,1,13,0.00
2012-10-24,82,65,47,51,40,23,86,46,15,29.82,29.56,13,3,25,0.00
2012-10-25,70,56,40,34,28,23,69,38,18,29.96,29.68,8,2,22,0.01
2012-10-26,48,39,35,37,31,28,90,73,56,30.31,29.88,6,2,16,0.00
2012-10-27,61,44,34,42,25,12,84,50,31,30.28,29.96,6,2,13,0.00
2012-10-28,69,46,28,40,31,26,95,63,27,30.28,30.01,6,1,13,0.00
2012-10-29,74,50,30,33,26,18,86,48,13,30.25,30.01,8,1,16,0.00
2012-10-30,75,53,35,26,18,11,56,29,10,30.18,29.88,8,1,16,0.00
2012-10-31,75,50,30,26,19,15,61,35,11,30.22,29.96,6,1,12,0.00
2012-11-1,74,50,29,28,23,18,72,43,13,30.22,29.89,3,1,18,0.00
2012-11-2,73,53,35,35,28,26,72,43,19,30.10,29.82,5,1,16,0.00
2012-11-3,67,55,39,47,36,29,88,52,29,30.08,29.73,8,2,20,0.04
2012-11-4,70,50,34,44,35,28,94,64,21,30.24,30.02,7,1,20,0.00
2012-11-5,68,48,32,38,27,20,92,53,16,30.24,30.08,6,1,14,0.00
2012-11-6,74,50,30,29,22,19,75,43,13,30.31,30.07,6,1,12,0.00
2012-11-7,76,48,31,28,22,21,67,42,13,30.31,29.97,7,1,13,0.00
2012-11-8,75,55,37,29,26,22,62,38,16,30.08,29.83,9,2,20,0.00
2012-11-9,74,58,37,40,31,27,70,40,19,30.06,29.66,10,3,21,0.00
2012-11-10,71,65,60,38,32,26,39,30,23,29.66,29.51,15,8,35,0.00
2012-11-11,60,44,22,28,18,0,55,35,18,30.37,29.57,9,3,20,0.00
2012-11-12,54,34,13,4,2,-1,56,29,12,30.62,30.29,6,2,16,0.00
2012-11-13,64,45,25,29,16,4,66,33,22,30.28,30.00,8,1,13,0.00
2012-11-14,64,41,19,21,16,11,77,44,14,30.51,30.14,7,2,16,0.00
2012-11-15,68,47,28,27,21,15,69,41,15,30.30,30.07,5,1,20,0.00
2012-11-16,61,46,34,28,23,17,65,41,23,30.33,30.09,7,1,17,0.00
2012-11-17,71,51,32,45,34,25,82,56,27,30.28,29.97,6,1,13,0.00
2012-11-18,64,56,47,46,43,41,79,63,46,30.10,29.86,7,2,16,0.00
2012-11-19,67,53,39,45,38,32,90,61,33,30.21,29.99,6,1,14,0.00
2012-11-20,67,49,30,38,32,28,94,59,29,30.32,30.02,6,1,10,0.00
2012-11-21,64,55,44,50,42,36,80,63,43,30.08,29.95,13,3,24,0.01
2012-11-22,70,54,38,41,35,31,88,53,26,30.18,29.87,7,2,24,0.00
2012-11-23,49,42,37,34,26,18,82,56,31,30.48,30.08,7,2,13,0.00
2012-11-24,63,51,31,41,34,28,87,56,36,30.28,30.08,7,2,16,0.00
2012-11-25,67,52,30,40,32,24,91,50,24,30.07,29.78,9,4,25,0.00
2012-11-26,67,49,33,34,26,19,78,46,20,30.14,29.92,8,1,18,0.00
2012-11-27,65,42,22,33,25,18,87,56,21,30.45,30.15,6,1,13,0.00
2012-11-28,66,44,26,31,26,19,85,55,23,30.47,30.08,7,1,14,0.00
2012-11-29,67,46,29,35,27,24,86,54,22,30.28,30.04,6,1,16,0.00
2012-11-30,69,53,30,31,25,18,79,38,19,30.17,29.89,9,3,21,0.00
2012-12-1,72,50,31,30,24,18,71,41,13,30.26,29.83,9,2,17,0.00
2012-12-2,73,51,29,33,26,18,70,42,19,30.27,29.93,9,2,18,0.00
2012-12-3,67,50,34,30,23,19,74,42,16,30.13,29.92,13,3,20,0.00
2012-12-4,63,45,29,30,24,19,74,47,25,30.38,30.05,6,1,12,0.00
2012-12-5,66,44,26,30,25,21,87,54,23,30.45,29.96,8,2,15,0.00
2012-12-6,70,53,31,24,21,17,66,33,15,29.98,29.68,12,4,21,0.00
2012-12-7,66,47,29,23,19,15,55,36,16,29.98,29.76,8,1,20,0.00
2012-12-8,62,44,26,26,19,14,64,40,18,30.00,29.79,13,4,30,0.00
2012-12-9,60,49,30,32,26,18,78,41,26,29.99,29.68,12,5,24,0.00
2012-12-10,46,32,11,22,10,4,83,47,23,30.29,29.97,12,3,20,0.00
2012-12-11,50,31,14,6,2,-3,55,32,13,30.35,30.02,7,1,14,0.00
2012-12-12,60,34,10,19,8,-4,59,38,14,30.37,30.03,9,2,18,0.00
2012-12-13,62,47,24,26,20,14,68,36,20,30.30,29.83,9,3,24,0.00
2012-12-14,60,51,39,39,33,24,60,51,32,29.93,29.56,15,8,32,0.00
2012-12-15,58,42,22,26,16,7,85,42,15,30.06,29.78,10,2,24,0.00
2012-12-16,51,44,30,29,24,17,67,47,32,30.00,29.77,14,6,35,0.00
2012-12-17,56,44,31,26,18,12,65,38,17,30.05,29.84,12,6,37,0.00
2012-12-18,69,49,26,18,9,4,50,24,9,30.10,29.59,10,3,18,0.00
2012-12-19,61,54,33,27,4,-12,45,17,5,30.05,29.48,18,10,37,0.00
2012-12-20,51,32,8,9,-2,-12,68,29,7,30.65,30.09,6,2,13,0.00
2012-12-21,54,41,27,7,-7,-22,28,13,5,30.48,30.10,6,2,18,0.00
2012-12-22,65,51,26,30,17,1,39,27,14,30.25,29.87,12,3,20,0.00
2012-12-23,58,52,26,34,29,13,60,42,33,30.06,29.83,14,5,22,0.00
2012-12-24,61,42,21,26,13,6,74,38,13,30.07,29.54,12,3,25,0.00
2012-12-25,49,36,20,27,17,8,61,47,22,30.20,29.52,16,6,40,0.00
2012-12-26,51,30,15,15,10,6,71,47,22,30.29,29.91,8,2,16,0.00
2012-12-27,57,45,25,13,7,3,47,22,12,29.86,29.53,10,4,20,0.00
2012-12-28,42,32,17,22,10,4,70,42,22,30.29,29.73,13,4,28,0.00
2012-12-29,46,31,14,13,9,3,66,42,20,30.49,30.17,8,3,17,0.00
2012-12-30,55,43,34,40,26,13,79,51,36,30.16,29.79,14,5,28,0.19
2012-12-31,49,43,27,39,26,17,77,52,30,30.08,29.71,12,5,27,0.00
2013-1-1,43,32,22,22,13,1,77,49,17,30.30,30.04,7,2,20,0.00